Vaduz, Liechtenstein
Current Conditions -  °F | °C
As of 3:20 PM on Thursday 23 Oct 2014 (Local Time) from LSZR Reporting Station
Broken Clouds Broken Clouds  
Wind Chill: 45°   Ceiling: 3700
Heat Index: 48°   Visibility: 6mi
Dew Point: 37°   Wind: 7mph
Humidity: 66%   Direction: 270°W
Pressure: 30.24"   Gusts: NA
Location:  47.14°N, 9.53°E
Report Text: LSZR 231320Z AUTO 27006KT 240V300 9999 BKN037 09/03 Q1024
Loading
Personal Weather Stations






























Interactive Weather Map
Tropical Storm Tracking
New forecast layout! Learn more

10-Day Weather Forecast

Advertisements
Track Severe Weather on mobile